KBWD/BWD METAR and TAF weather

Enter ICAO airport designator
Station Type Date Time Source
KBWD METAR 2019/12/08 13:35 UTC NOAA

KBWD 081335Z AUTO 15004KT 10SM CLR 05/04 A3001 RMK AO1


Station Type Date Time Source
KBWD Decoded METAR 2019/12/08 13:35 UTC NOAA

Brownwood, Brownwood Regional Airport, TX, United States (KBWD) 31-48N 098-57W
Dec 08, 2019 - 08:35 AM EST / 2019.12.08 1335 UTC
Wind: from the SSE (150 degrees) at 5 MPH (4 KT):0
Visibility: 10 mile(s):0
Sky conditions: clear
Temperature: 41 F (5 C)
Dew Point: 39 F (4 C)
Relative Humidity: 93%
Pressure (altimeter): 30.01 in. Hg (1016 hPa)
ob: KBWD 081335Z AUTO 15004KT 10SM CLR 05/04 A3001 RMK AO1
cycle: 13

Station Type Date Time Source
KBWD TAF UTC NOAA

Error!

Example: see airport list